sensor_id;sensor_type;location;lat;lon;timestamp;P1;durP1;ratioP1;P2;durP2;ratioP2
8636;SDS011;4356;49.068;8.658;2023-05-21T00:01:38;3.60;;;3.40;;
8636;SDS011;4356;49.068;8.658;2023-05-21T00:04:04;3.80;;;3.50;;
8636;SDS011;4356;49.068;8.658;2023-05-21T00:06:35;3.70;;;3.40;;
8636;SDS011;4356;49.068;8.658;2023-05-21T00:09:01;3.60;;;3.30;;
8636;SDS011;4356;49.068;8.658;2023-05-21T00:11:28;3.80;;;3.60;;
8636;SDS011;4356;49.068;8.658;2023-05-21T00:13:53;3.43;;;3.23;;
8636;SDS011;4356;49.068;8.658;2023-05-21T00:16:19;3.70;;;3.50;;
8636;SDS011;4356;49.068;8.658;2023-05-21T00:18:45;3.93;;;3.73;;
8636;SDS011;4356;49.068;8.658;2023-05-21T00:21:11;3.77;;;3.57;;
8636;SDS011;4356;49.068;8.658;2023-05-21T00:23:38;3.80;;;3.50;;
8636;SDS011;4356;49.068;8.658;2023-05-21T00:26:05;4.20;;;3.90;;
8636;SDS011;4356;49.068;8.658;2023-05-21T00:28:30;3.83;;;3.63;;
8636;SDS011;4356;49.068;8.658;2023-05-21T00:30:56;3.23;;;3.03;;
8636;SDS011;4356;49.068;8.658;2023-05-21T00:33:21;3.57;;;3.37;;
8636;SDS011;4356;49.068;8.658;2023-05-21T00:35:50;3.77;;;3.47;;
8636;SDS011;4356;49.068;8.658;2023-05-21T00:38:16;4.13;;;3.83;;
8636;SDS011;4356;49.068;8.658;2023-05-21T00:40:42;3.77;;;3.57;;
8636;SDS011;4356;49.068;8.658;2023-05-21T00:43:08;3.50;;;3.27;;
8636;SDS011;4356;49.068;8.658;2023-05-21T00:45:35;4.10;;;3.90;;
8636;SDS011;4356;49.068;8.658;2023-05-21T00:48:04;3.17;;;3.07;;
8636;SDS011;4356;49.068;8.658;2023-05-21T00:50:30;3.47;;;3.20;;
8636;SDS011;4356;49.068;8.658;2023-05-21T00:52:57;4.17;;;3.87;;
8636;SDS011;4356;49.068;8.658;2023-05-21T00:55:23;3.30;;;3.10;;
8636;SDS011;4356;49.068;8.658;2023-05-21T00:57:49;3.77;;;3.57;;
8636;SDS011;4356;49.068;8.658;2023-05-21T01:00:15;3.93;;;3.50;;
8636;SDS011;4356;49.068;8.658;2023-05-21T01:02:41;3.53;;;3.27;;
8636;SDS011;4356;49.068;8.658;2023-05-21T01:05:08;3.97;;;3.77;;
8636;SDS011;4356;49.068;8.658;2023-05-21T01:07:36;4.10;;;3.90;;
8636;SDS011;4356;49.068;8.658;2023-05-21T01:10:04;3.83;;;3.57;;
8636;SDS011;4356;49.068;8.658;2023-05-21T01:12:32;3.80;;;3.53;;
8636;SDS011;4356;49.068;8.658;2023-05-21T01:14:59;3.67;;;3.43;;
8636;SDS011;4356;49.068;8.658;2023-05-21T01:17:27;3.23;;;3.03;;
8636;SDS011;4356;49.068;8.658;2023-05-21T01:19:54;3.63;;;3.43;;
8636;SDS011;4356;49.068;8.658;2023-05-21T01:22:22;3.50;;;3.30;;
8636;SDS011;4356;49.068;8.658;2023-05-21T01:24:49;3.80;;;3.50;;
8636;SDS011;4356;49.068;8.658;2023-05-21T01:27:15;3.60;;;3.40;;
8636;SDS011;4356;49.068;8.658;2023-05-21T01:29:41;4.03;;;3.73;;
8636;SDS011;4356;49.068;8.658;2023-05-21T01:32:50;3.60;;;3.40;;
8636;SDS011;4356;49.068;8.658;2023-05-21T01:35:16;3.47;;;3.27;;
8636;SDS011;4356;49.068;8.658;2023-05-21T01:43:28;3.23;;;3.03;;
8636;SDS011;4356;49.068;8.658;2023-05-21T01:45:56;3.40;;;3.20;;
8636;SDS011;4356;49.068;8.658;2023-05-21T01:48:27;4.07;;;3.77;;
8636;SDS011;4356;49.068;8.658;2023-05-21T01:50:57;3.43;;;3.23;;
8636;SDS011;4356;49.068;8.658;2023-05-21T01:53:26;3.17;;;2.97;;
8636;SDS011;4356;49.068;8.658;2023-05-21T01:55:51;3.27;;;3.10;;
8636;SDS011;4356;49.068;8.658;2023-05-21T01:58:18;3.80;;;3.60;;
8636;SDS011;4356;49.068;8.658;2023-05-21T02:00:45;3.67;;;3.47;;
8636;SDS011;4356;49.068;8.658;2023-05-21T02:03:11;4.00;;;3.80;;
8636;SDS011;4356;49.068;8.658;2023-05-21T02:05:39;3.57;;;3.37;;
8636;SDS011;4356;49.068;8.658;2023-05-21T02:08:05;3.50;;;3.20;;
8636;SDS011;4356;49.068;8.658;2023-05-21T02:10:32;3.87;;;3.57;;
8636;SDS011;4356;49.068;8.658;2023-05-21T02:12:58;4.10;;;3.80;;
8636;SDS011;4356;49.068;8.658;2023-05-21T02:15:24;3.47;;;3.27;;
8636;SDS011;4356;49.068;8.658;2023-05-21T02:17:49;3.63;;;3.43;;
8636;SDS011;4356;49.068;8.658;2023-05-21T02:20:15;3.83;;;3.53;;
8636;SDS011;4356;49.068;8.658;2023-05-21T02:22:43;4.00;;;3.70;;
8636;SDS011;4356;49.068;8.658;2023-05-21T02:25:10;3.90;;;3.70;;
8636;SDS011;4356;49.068;8.658;2023-05-21T02:27:38;3.87;;;3.57;;
8636;SDS011;4356;49.068;8.658;2023-05-21T02:30:06;3.47;;;3.27;;
8636;SDS011;4356;49.068;8.658;2023-05-21T02:32:33;3.83;;;3.50;;
8636;SDS011;4356;49.068;8.658;2023-05-21T02:35:00;3.60;;;3.40;;
8636;SDS011;4356;49.068;8.658;2023-05-21T02:37:27;3.53;;;3.33;;
8636;SDS011;4356;49.068;8.658;2023-05-21T02:39:54;3.47;;;3.27;;
8636;SDS011;4356;49.068;8.658;2023-05-21T02:42:21;3.67;;;3.47;;
8636;SDS011;4356;49.068;8.658;2023-05-21T02:44:47;4.07;;;3.77;;
8636;SDS011;4356;49.068;8.658;2023-05-21T02:47:14;3.53;;;3.33;;
8636;SDS011;4356;49.068;8.658;2023-05-21T02:49:40;3.83;;;3.63;;
8636;SDS011;4356;49.068;8.658;2023-05-21T02:52:06;3.60;;;3.40;;
8636;SDS011;4356;49.068;8.658;2023-05-21T02:54:31;3.40;;;3.20;;
8636;SDS011;4356;49.068;8.658;2023-05-21T02:56:57;3.23;;;3.03;;
8636;SDS011;4356;49.068;8.658;2023-05-21T02:59:22;3.83;;;3.60;;
8636;SDS011;4356;49.068;8.658;2023-05-21T03:01:48;2.80;;;2.70;;
8636;SDS011;4356;49.068;8.658;2023-05-21T03:04:13;3.77;;;3.57;;
8636;SDS011;4356;49.068;8.658;2023-05-21T03:06:41;3.07;;;2.93;;
8636;SDS011;4356;49.068;8.658;2023-05-21T03:09:07;3.70;;;3.50;;
8636;SDS011;4356;49.068;8.658;2023-05-21T03:11:33;3.10;;;2.90;;
8636;SDS011;4356;49.068;8.658;2023-05-21T03:13:58;3.67;;;3.47;;
8636;SDS011;4356;49.068;8.658;2023-05-21T03:16:24;2.80;;;2.70;;
8636;SDS011;4356;49.068;8.658;2023-05-21T03:18:49;3.47;;;3.27;;
8636;SDS011;4356;49.068;8.658;2023-05-21T03:21:15;3.47;;;3.27;;
8636;SDS011;4356;49.068;8.658;2023-05-21T03:23:41;2.90;;;2.70;;
8636;SDS011;4356;49.068;8.658;2023-05-21T03:26:07;2.90;;;2.70;;
8636;SDS011;4356;49.068;8.658;2023-05-21T03:28:36;3.43;;;3.23;;
8636;SDS011;4356;49.068;8.658;2023-05-21T03:31:01;3.33;;;3.10;;
8636;SDS011;4356;49.068;8.658;2023-05-21T03:33:27;3.70;;;3.40;;
8636;SDS011;4356;49.068;8.658;2023-05-21T03:35:52;3.23;;;3.03;;
8636;SDS011;4356;49.068;8.658;2023-05-21T03:38:18;2.87;;;2.77;;
8636;SDS011;4356;49.068;8.658;2023-05-21T03:40:44;3.43;;;3.23;;
8636;SDS011;4356;49.068;8.658;2023-05-21T03:43:09;3.63;;;3.43;;
8636;SDS011;4356;49.068;8.658;2023-05-21T03:45:35;3.40;;;3.20;;
8636;SDS011;4356;49.068;8.658;2023-05-21T03:48:00;3.67;;;3.47;;
8636;SDS011;4356;49.068;8.658;2023-05-21T03:50:26;3.13;;;2.97;;
8636;SDS011;4356;49.068;8.658;2023-05-21T03:52:51;3.27;;;3.07;;
8636;SDS011;4356;49.068;8.658;2023-05-21T03:55:17;2.87;;;2.77;;
8636;SDS011;4356;49.068;8.658;2023-05-21T03:57:43;3.57;;;3.37;;
8636;SDS011;4356;49.068;8.658;2023-05-21T04:00:08;3.50;;;3.20;;
8636;SDS011;4356;49.068;8.658;2023-05-21T04:02:34;2.80;;;2.60;;
8636;SDS011;4356;49.068;8.658;2023-05-21T04:05:00;3.67;;;3.47;;
8636;SDS011;4356;49.068;8.658;2023-05-21T04:07:25;3.40;;;3.23;;
8636;SDS011;4356;49.068;8.658;2023-05-21T04:09:51;2.83;;;2.67;;
8636;SDS011;4356;49.068;8.658;2023-05-21T04:12:17;3.53;;;3.27;;
8636;SDS011;4356;49.068;8.658;2023-05-21T04:14:44;2.83;;;2.67;;
8636;SDS011;4356;49.068;8.658;2023-05-21T04:17:10;3.50;;;3.30;;
8636;SDS011;4356;49.068;8.658;2023-05-21T04:19:39;3.33;;;3.13;;
8636;SDS011;4356;49.068;8.658;2023-05-21T04:22:04;3.20;;;3.10;;
8636;SDS011;4356;49.068;8.658;2023-05-21T04:24:30;2.77;;;2.67;;
8636;SDS011;4356;49.068;8.658;2023-05-21T04:26:56;3.23;;;3.03;;
8636;SDS011;4356;49.068;8.658;2023-05-21T04:29:25;3.40;;;3.20;;
8636;SDS011;4356;49.068;8.658;2023-05-21T04:31:51;3.57;;;3.37;;
8636;SDS011;4356;49.068;8.658;2023-05-21T04:34:17;2.90;;;2.80;;
8636;SDS011;4356;49.068;8.658;2023-05-21T04:36:43;3.27;;;3.07;;
8636;SDS011;4356;49.068;8.658;2023-05-21T04:39:10;3.63;;;3.33;;
8636;SDS011;4356;49.068;8.658;2023-05-21T04:41:39;3.03;;;2.93;;
8636;SDS011;4356;49.068;8.658;2023-05-21T04:44:07;3.43;;;3.23;;
8636;SDS011;4356;49.068;8.658;2023-05-21T04:46:33;3.30;;;3.00;;
8636;SDS011;4356;49.068;8.658;2023-05-21T04:49:00;2.63;;;2.53;;
8636;SDS011;4356;49.068;8.658;2023-05-21T04:51:29;3.37;;;3.17;;
8636;SDS011;4356;49.068;8.658;2023-05-21T04:53:55;3.37;;;3.13;;
8636;SDS011;4356;49.068;8.658;2023-05-21T04:56:22;3.37;;;3.17;;
8636;SDS011;4356;49.068;8.658;2023-05-21T04:58:51;3.60;;;3.40;;
8636;SDS011;4356;49.068;8.658;2023-05-21T05:01:20;3.83;;;3.27;;
8636;SDS011;4356;49.068;8.658;2023-05-21T05:03:51;3.40;;;3.20;;
8636;SDS011;4356;49.068;8.658;2023-05-21T05:06:16;3.30;;;3.10;;
8636;SDS011;4356;49.068;8.658;2023-05-21T05:08:42;3.60;;;3.40;;
8636;SDS011;4356;49.068;8.658;2023-05-21T05:11:10;3.67;;;3.47;;
8636;SDS011;4356;49.068;8.658;2023-05-21T05:13:36;3.60;;;3.40;;
8636;SDS011;4356;49.068;8.658;2023-05-21T05:16:01;3.33;;;3.13;;
8636;SDS011;4356;49.068;8.658;2023-05-21T05:18:28;3.50;;;3.30;;
8636;SDS011;4356;49.068;8.658;2023-05-21T05:20:53;3.53;;;3.33;;
8636;SDS011;4356;49.068;8.658;2023-05-21T05:23:19;3.60;;;3.40;;
8636;SDS011;4356;49.068;8.658;2023-05-21T05:25:44;3.27;;;3.07;;
8636;SDS011;4356;49.068;8.658;2023-05-21T05:28:10;3.27;;;3.07;;
8636;SDS011;4356;49.068;8.658;2023-05-21T05:30:36;3.20;;;3.00;;
8636;SDS011;4356;49.068;8.658;2023-05-21T05:33:01;3.13;;;2.93;;
8636;SDS011;4356;49.068;8.658;2023-05-21T05:35:27;3.30;;;3.10;;
8636;SDS011;4356;49.068;8.658;2023-05-21T05:37:52;4.07;;;3.67;;
8636;SDS011;4356;49.068;8.658;2023-05-21T05:40:18;3.67;;;3.37;;
8636;SDS011;4356;49.068;8.658;2023-05-21T05:42:43;3.53;;;3.33;;
8636;SDS011;4356;49.068;8.658;2023-05-21T05:45:09;2.83;;;2.73;;
8636;SDS011;4356;49.068;8.658;2023-05-21T05:47:35;3.23;;;3.07;;
8636;SDS011;4356;49.068;8.658;2023-05-21T05:50:00;3.60;;;3.40;;
8636;SDS011;4356;49.068;8.658;2023-05-21T05:52:26;4.00;;;3.80;;
8636;SDS011;4356;49.068;8.658;2023-05-21T05:54:51;3.27;;;3.07;;
8636;SDS011;4356;49.068;8.658;2023-05-21T05:57:17;3.73;;;3.53;;
8636;SDS011;4356;49.068;8.658;2023-05-21T05:59:42;3.43;;;3.23;;
8636;SDS011;4356;49.068;8.658;2023-05-21T06:02:08;4.53;;;4.20;;
8636;SDS011;4356;49.068;8.658;2023-05-21T06:04:33;4.00;;;3.67;;
8636;SDS011;4356;49.068;8.658;2023-05-21T06:06:59;4.00;;;3.80;;
8636;SDS011;4356;49.068;8.658;2023-05-21T06:09:25;4.10;;;3.90;;
8636;SDS011;4356;49.068;8.658;2023-05-21T06:11:50;3.77;;;3.53;;
8636;SDS011;4356;49.068;8.658;2023-05-21T06:14:16;4.00;;;3.70;;
8636;SDS011;4356;49.068;8.658;2023-05-21T06:16:41;3.83;;;3.53;;
8636;SDS011;4356;49.068;8.658;2023-05-21T06:19:07;3.50;;;3.30;;
8636;SDS011;4356;49.068;8.658;2023-05-21T06:21:32;4.20;;;3.93;;
8636;SDS011;4356;49.068;8.658;2023-05-21T06:23:58;4.50;;;4.20;;
8636;SDS011;4356;49.068;8.658;2023-05-21T06:26:24;4.00;;;3.80;;
8636;SDS011;4356;49.068;8.658;2023-05-21T06:28:49;4.83;;;4.47;;
8636;SDS011;4356;49.068;8.658;2023-05-21T06:31:15;3.93;;;3.73;;
8636;SDS011;4356;49.068;8.658;2023-05-21T06:33:40;4.40;;;4.10;;
8636;SDS011;4356;49.068;8.658;2023-05-21T06:36:06;4.17;;;3.87;;
8636;SDS011;4356;49.068;8.658;2023-05-21T06:38:32;4.37;;;4.07;;
8636;SDS011;4356;49.068;8.658;2023-05-21T06:40:58;4.43;;;4.13;;
8636;SDS011;4356;49.068;8.658;2023-05-21T06:43:23;4.63;;;4.23;;
8636;SDS011;4356;49.068;8.658;2023-05-21T06:45:49;4.13;;;3.83;;
8636;SDS011;4356;49.068;8.658;2023-05-21T06:48:15;4.17;;;3.80;;
8636;SDS011;4356;49.068;8.658;2023-05-21T06:50:41;4.50;;;4.10;;
8636;SDS011;4356;49.068;8.658;2023-05-21T06:53:07;3.97;;;3.77;;
8636;SDS011;4356;49.068;8.658;2023-05-21T06:55:33;4.20;;;3.90;;
8636;SDS011;4356;49.068;8.658;2023-05-21T06:57:59;4.67;;;3.70;;
8636;SDS011;4356;49.068;8.658;2023-05-21T07:00:25;4.20;;;3.90;;
8636;SDS011;4356;49.068;8.658;2023-05-21T07:02:50;4.33;;;4.03;;
8636;SDS011;4356;49.068;8.658;2023-05-21T07:05:16;3.33;;;3.13;;
8636;SDS011;4356;49.068;8.658;2023-05-21T07:07:41;4.10;;;3.80;;
8636;SDS011;4356;49.068;8.658;2023-05-21T07:10:07;4.10;;;3.80;;
8636;SDS011;4356;49.068;8.658;2023-05-21T07:12:33;3.90;;;3.60;;
8636;SDS011;4356;49.068;8.658;2023-05-21T07:14:59;4.37;;;4.07;;
8636;SDS011;4356;49.068;8.658;2023-05-21T07:17:24;4.63;;;4.33;;
8636;SDS011;4356;49.068;8.658;2023-05-21T07:19:50;4.03;;;3.73;;
8636;SDS011;4356;49.068;8.658;2023-05-21T07:22:15;3.80;;;3.60;;
8636;SDS011;4356;49.068;8.658;2023-05-21T07:24:41;4.70;;;4.30;;
8636;SDS011;4356;49.068;8.658;2023-05-21T07:27:10;3.97;;;3.67;;
8636;SDS011;4356;49.068;8.658;2023-05-21T07:29:35;4.13;;;3.87;;
8636;SDS011;4356;49.068;8.658;2023-05-21T07:32:01;3.93;;;3.63;;
8636;SDS011;4356;49.068;8.658;2023-05-21T07:34:27;4.07;;;3.77;;
8636;SDS011;4356;49.068;8.658;2023-05-21T07:36:52;3.57;;;3.37;;
8636;SDS011;4356;49.068;8.658;2023-05-21T07:39:18;3.97;;;3.60;;
8636;SDS011;4356;49.068;8.658;2023-05-21T07:41:43;4.17;;;3.90;;
8636;SDS011;4356;49.068;8.658;2023-05-21T07:44:09;3.63;;;3.33;;
8636;SDS011;4356;49.068;8.658;2023-05-21T07:46:35;3.57;;;3.37;;
8636;SDS011;4356;49.068;8.658;2023-05-21T07:49:01;3.60;;;3.40;;
8636;SDS011;4356;49.068;8.658;2023-05-21T07:51:26;3.70;;;3.50;;
8636;SDS011;4356;49.068;8.658;2023-05-21T07:53:53;3.80;;;3.53;;
8636;SDS011;4356;49.068;8.658;2023-05-21T07:56:20;4.53;;;3.73;;
8636;SDS011;4356;49.068;8.658;2023-05-21T07:58:47;3.40;;;3.20;;
8636;SDS011;4356;49.068;8.658;2023-05-21T08:01:12;3.63;;;3.43;;
8636;SDS011;4356;49.068;8.658;2023-05-21T08:03:38;3.50;;;3.20;;
8636;SDS011;4356;49.068;8.658;2023-05-21T08:06:03;3.53;;;3.33;;
8636;SDS011;4356;49.068;8.658;2023-05-21T08:08:29;3.80;;;3.50;;
8636;SDS011;4356;49.068;8.658;2023-05-21T08:10:54;3.93;;;3.63;;
8636;SDS011;4356;49.068;8.658;2023-05-21T08:13:21;3.37;;;3.17;;
8636;SDS011;4356;49.068;8.658;2023-05-21T08:15:47;3.97;;;3.60;;
8636;SDS011;4356;49.068;8.658;2023-05-21T08:18:13;3.73;;;3.50;;
8636;SDS011;4356;49.068;8.658;2023-05-21T08:20:38;3.13;;;2.97;;
8636;SDS011;4356;49.068;8.658;2023-05-21T08:23:05;4.73;;;3.60;;
8636;SDS011;4356;49.068;8.658;2023-05-21T08:25:31;4.17;;;3.87;;
8636;SDS011;4356;49.068;8.658;2023-05-21T08:27:56;3.93;;;3.63;;
8636;SDS011;4356;49.068;8.658;2023-05-21T08:30:22;3.70;;;3.40;;
8636;SDS011;4356;49.068;8.658;2023-05-21T08:32:48;3.60;;;3.40;;
8636;SDS011;4356;49.068;8.658;2023-05-21T08:35:13;4.10;;;3.80;;
8636;SDS011;4356;49.068;8.658;2023-05-21T08:37:39;3.50;;;3.30;;
8636;SDS011;4356;49.068;8.658;2023-05-21T08:40:05;3.37;;;3.17;;
8636;SDS011;4356;49.068;8.658;2023-05-21T08:42:33;3.77;;;3.57;;
8636;SDS011;4356;49.068;8.658;2023-05-21T08:45:04;3.73;;;3.43;;
8636;SDS011;4356;49.068;8.658;2023-05-21T08:47:31;3.57;;;3.37;;
8636;SDS011;4356;49.068;8.658;2023-05-21T08:50:01;3.83;;;3.53;;
8636;SDS011;4356;49.068;8.658;2023-05-21T08:52:29;3.53;;;3.23;;
8636;SDS011;4356;49.068;8.658;2023-05-21T08:54:58;3.77;;;3.57;;
8636;SDS011;4356;49.068;8.658;2023-05-21T08:57:24;3.40;;;3.20;;
8636;SDS011;4356;49.068;8.658;2023-05-21T08:59:51;2.97;;;2.77;;
8636;SDS011;4356;49.068;8.658;2023-05-21T09:02:17;3.97;;;3.63;;
8636;SDS011;4356;49.068;8.658;2023-05-21T09:04:44;3.20;;;3.00;;
8636;SDS011;4356;49.068;8.658;2023-05-21T09:07:13;3.50;;;3.27;;
8636;SDS011;4356;49.068;8.658;2023-05-21T09:10:22;3.20;;;3.00;;
8636;SDS011;4356;49.068;8.658;2023-05-21T09:12:32;3.17;;;2.97;;
8636;SDS011;4356;49.068;8.658;2023-05-21T09:14:59;3.57;;;3.37;;
8636;SDS011;4356;49.068;8.658;2023-05-21T09:17:25;3.67;;;3.47;;
8636;SDS011;4356;49.068;8.658;2023-05-21T09:20:04;3.17;;;2.97;;
8636;SDS011;4356;49.068;8.658;2023-05-21T09:22:33;2.97;;;2.77;;
8636;SDS011;4356;49.068;8.658;2023-05-21T09:25:03;3.17;;;2.97;;
8636;SDS011;4356;49.068;8.658;2023-05-21T09:27:31;2.97;;;2.77;;
8636;SDS011;4356;49.068;8.658;2023-05-21T09:29:56;3.00;;;2.90;;
8636;SDS011;4356;49.068;8.658;2023-05-21T09:32:22;3.77;;;3.47;;
8636;SDS011;4356;49.068;8.658;2023-05-21T09:34:47;3.23;;;3.03;;
8636;SDS011;4356;49.068;8.658;2023-05-21T09:37:14;3.17;;;3.03;;
8636;SDS011;4356;49.068;8.658;2023-05-21T09:39:40;3.00;;;2.80;;
8636;SDS011;4356;49.068;8.658;2023-05-21T09:42:06;3.00;;;2.90;;
8636;SDS011;4356;49.068;8.658;2023-05-21T09:44:31;2.90;;;2.80;;
8636;SDS011;4356;49.068;8.658;2023-05-21T09:46:59;3.40;;;3.13;;
8636;SDS011;4356;49.068;8.658;2023-05-21T09:49:26;2.90;;;2.70;;
8636;SDS011;4356;49.068;8.658;2023-05-21T09:51:58;3.20;;;3.00;;
8636;SDS011;4356;49.068;8.658;2023-05-21T09:54:24;3.17;;;2.97;;
8636;SDS011;4356;49.068;8.658;2023-05-21T09:56:54;3.20;;;3.00;;
8636;SDS011;4356;49.068;8.658;2023-05-21T09:59:20;3.17;;;3.03;;
8636;SDS011;4356;49.068;8.658;2023-05-21T10:01:46;2.63;;;2.50;;
8636;SDS011;4356;49.068;8.658;2023-05-21T10:04:15;3.10;;;2.93;;
8636;SDS011;4356;49.068;8.658;2023-05-21T10:06:41;4.67;;;3.20;;
8636;SDS011;4356;49.068;8.658;2023-05-21T10:09:09;3.67;;;3.23;;
8636;SDS011;4356;49.068;8.658;2023-05-21T10:11:35;2.90;;;2.80;;
8636;SDS011;4356;49.068;8.658;2023-05-21T10:16:33;3.00;;;2.83;;
8636;SDS011;4356;49.068;8.658;2023-05-21T10:19:00;3.00;;;2.80;;
8636;SDS011;4356;49.068;8.658;2023-05-21T10:21:27;3.23;;;3.03;;
8636;SDS011;4356;49.068;8.658;2023-05-21T10:23:53;3.20;;;3.00;;
8636;SDS011;4356;49.068;8.658;2023-05-21T10:26:22;3.10;;;3.00;;
8636;SDS011;4356;49.068;8.658;2023-05-21T10:28:49;3.47;;;3.27;;
8636;SDS011;4356;49.068;8.658;2023-05-21T10:31:16;3.10;;;3.00;;
8636;SDS011;4356;49.068;8.658;2023-05-21T10:33:43;3.17;;;2.97;;
8636;SDS011;4356;49.068;8.658;2023-05-21T10:36:09;3.47;;;3.27;;
8636;SDS011;4356;49.068;8.658;2023-05-21T10:38:36;2.80;;;2.70;;
8636;SDS011;4356;49.068;8.658;2023-05-21T10:41:03;3.00;;;2.80;;
8636;SDS011;4356;49.068;8.658;2023-05-21T11:00:51;3.20;;;3.00;;
8636;SDS011;4356;49.068;8.658;2023-05-21T11:03:19;2.77;;;2.67;;
8636;SDS011;4356;49.068;8.658;2023-05-21T11:05:50;3.10;;;2.90;;
8636;SDS011;4356;49.068;8.658;2023-05-21T11:08:27;3.03;;;2.83;;
8636;SDS011;4356;49.068;8.658;2023-05-21T11:11:00;2.87;;;2.67;;
8636;SDS011;4356;49.068;8.658;2023-05-21T11:13:27;2.93;;;2.83;;
8636;SDS011;4356;49.068;8.658;2023-05-21T11:16:12;2.80;;;2.60;;
8636;SDS011;4356;49.068;8.658;2023-05-21T11:21:05;3.03;;;2.93;;
8636;SDS011;4356;49.068;8.658;2023-05-21T11:23:51;3.43;;;3.23;;
8636;SDS011;4356;49.068;8.658;2023-05-21T11:26:24;3.17;;;2.97;;
8636;SDS011;4356;49.068;8.658;2023-05-21T11:31:30;3.20;;;3.00;;
8636;SDS011;4356;49.068;8.658;2023-05-21T11:34:11;2.93;;;2.73;;
8636;SDS011;4356;49.068;8.658;2023-05-21T11:36:43;3.27;;;3.07;;
8636;SDS011;4356;49.068;8.658;2023-05-21T11:39:10;2.73;;;2.57;;
8636;SDS011;4356;49.068;8.658;2023-05-21T11:41:58;2.77;;;2.57;;
8636;SDS011;4356;49.068;8.658;2023-05-21T11:44:38;2.23;;;2.13;;
8636;SDS011;4356;49.068;8.658;2023-05-21T11:47:06;2.77;;;2.57;;
8636;SDS011;4356;49.068;8.658;2023-05-21T11:49:33;2.83;;;2.73;;
8636;SDS011;4356;49.068;8.658;2023-05-21T11:52:00;2.50;;;2.40;;
8636;SDS011;4356;49.068;8.658;2023-05-21T11:54:27;2.70;;;2.50;;
8636;SDS011;4356;49.068;8.658;2023-05-21T11:57:03;2.47;;;2.37;;
8636;SDS011;4356;49.068;8.658;2023-05-21T11:59:34;3.00;;;2.80;;
8636;SDS011;4356;49.068;8.658;2023-05-21T12:02:00;2.73;;;2.63;;
8636;SDS011;4356;49.068;8.658;2023-05-21T12:04:30;2.50;;;2.40;;
8636;SDS011;4356;49.068;8.658;2023-05-21T12:06:56;2.50;;;2.40;;
8636;SDS011;4356;49.068;8.658;2023-05-21T12:09:23;3.17;;;2.97;;
8636;SDS011;4356;49.068;8.658;2023-05-21T12:11:49;2.20;;;2.10;;
8636;SDS011;4356;49.068;8.658;2023-05-21T12:14:17;2.30;;;2.20;;
8636;SDS011;4356;49.068;8.658;2023-05-21T12:16:43;2.87;;;2.67;;
8636;SDS011;4356;49.068;8.658;2023-05-21T12:19:09;2.43;;;2.33;;
8636;SDS011;4356;49.068;8.658;2023-05-21T12:21:34;2.60;;;2.50;;
8636;SDS011;4356;49.068;8.658;2023-05-21T12:24:00;2.73;;;2.60;;
8636;SDS011;4356;49.068;8.658;2023-05-21T12:26:26;2.33;;;2.23;;
8636;SDS011;4356;49.068;8.658;2023-05-21T12:28:52;2.60;;;2.50;;
8636;SDS011;4356;49.068;8.658;2023-05-21T12:31:20;2.20;;;2.10;;
8636;SDS011;4356;49.068;8.658;2023-05-21T12:33:51;2.67;;;2.57;;
8636;SDS011;4356;49.068;8.658;2023-05-21T12:36:35;2.67;;;2.57;;
8636;SDS011;4356;49.068;8.658;2023-05-21T12:39:02;2.43;;;2.33;;
8636;SDS011;4356;49.068;8.658;2023-05-21T12:41:28;2.50;;;2.37;;
8636;SDS011;4356;49.068;8.658;2023-05-21T12:43:54;2.20;;;2.10;;
8636;SDS011;4356;49.068;8.658;2023-05-21T12:46:19;2.97;;;2.77;;
8636;SDS011;4356;49.068;8.658;2023-05-21T12:48:53;3.03;;;2.83;;
8636;SDS011;4356;49.068;8.658;2023-05-21T12:51:19;2.60;;;2.50;;
8636;SDS011;4356;49.068;8.658;2023-05-21T12:53:45;2.77;;;2.67;;
8636;SDS011;4356;49.068;8.658;2023-05-21T12:56:12;2.53;;;2.43;;
8636;SDS011;4356;49.068;8.658;2023-05-21T12:58:40;2.77;;;2.57;;
8636;SDS011;4356;49.068;8.658;2023-05-21T13:01:10;2.43;;;2.33;;
8636;SDS011;4356;49.068;8.658;2023-05-21T13:03:36;2.80;;;2.60;;
8636;SDS011;4356;49.068;8.658;2023-05-21T13:06:06;2.50;;;2.40;;
8636;SDS011;4356;49.068;8.658;2023-05-21T13:08:33;2.40;;;2.30;;
8636;SDS011;4356;49.068;8.658;2023-05-21T13:11:02;2.40;;;2.30;;
8636;SDS011;4356;49.068;8.658;2023-05-21T13:13:28;2.27;;;2.17;;
8636;SDS011;4356;49.068;8.658;2023-05-21T13:15:54;2.60;;;2.50;;
8636;SDS011;4356;49.068;8.658;2023-05-21T13:18:20;2.47;;;2.37;;
8636;SDS011;4356;49.068;8.658;2023-05-21T13:20:46;3.23;;;3.03;;
8636;SDS011;4356;49.068;8.658;2023-05-21T13:23:15;2.30;;;2.20;;
8636;SDS011;4356;49.068;8.658;2023-05-21T13:25:41;2.50;;;2.40;;
8636;SDS011;4356;49.068;8.658;2023-05-21T13:28:07;2.40;;;2.30;;
8636;SDS011;4356;49.068;8.658;2023-05-21T13:30:34;2.23;;;2.13;;
8636;SDS011;4356;49.068;8.658;2023-05-21T13:33:00;2.90;;;2.70;;
8636;SDS011;4356;49.068;8.658;2023-05-21T13:35:26;1.87;;;1.87;;
8636;SDS011;4356;49.068;8.658;2023-05-21T13:37:52;2.67;;;2.57;;
8636;SDS011;4356;49.068;8.658;2023-05-21T13:40:18;2.30;;;2.20;;
8636;SDS011;4356;49.068;8.658;2023-05-21T13:42:45;2.37;;;2.27;;
8636;SDS011;4356;49.068;8.658;2023-05-21T13:45:12;2.17;;;2.13;;
8636;SDS011;4356;49.068;8.658;2023-05-21T13:47:40;2.40;;;2.20;;
8636;SDS011;4356;49.068;8.658;2023-05-21T13:50:08;2.70;;;2.60;;
8636;SDS011;4356;49.068;8.658;2023-05-21T13:52:35;2.43;;;2.33;;
8636;SDS011;4356;49.068;8.658;2023-05-21T13:55:01;2.60;;;2.50;;
8636;SDS011;4356;49.068;8.658;2023-05-21T13:57:27;3.13;;;2.97;;
8636;SDS011;4356;49.068;8.658;2023-05-21T13:59:54;2.60;;;2.40;;
8636;SDS011;4356;49.068;8.658;2023-05-21T14:02:21;2.47;;;2.33;;
8636;SDS011;4356;49.068;8.658;2023-05-21T14:04:47;2.27;;;2.17;;
8636;SDS011;4356;49.068;8.658;2023-05-21T14:07:12;2.60;;;2.50;;
8636;SDS011;4356;49.068;8.658;2023-05-21T14:09:38;2.27;;;2.17;;
8636;SDS011;4356;49.068;8.658;2023-05-21T14:12:04;2.77;;;2.67;;
8636;SDS011;4356;49.068;8.658;2023-05-21T14:14:30;2.60;;;2.40;;
8636;SDS011;4356;49.068;8.658;2023-05-21T14:16:56;2.90;;;2.80;;
8636;SDS011;4356;49.068;8.658;2023-05-21T14:19:22;2.23;;;2.13;;
8636;SDS011;4356;49.068;8.658;2023-05-21T14:21:50;2.80;;;2.60;;
8636;SDS011;4356;49.068;8.658;2023-05-21T14:24:16;2.63;;;2.53;;
8636;SDS011;4356;49.068;8.658;2023-05-21T14:26:41;2.43;;;2.33;;
8636;SDS011;4356;49.068;8.658;2023-05-21T14:29:07;2.43;;;2.33;;
8636;SDS011;4356;49.068;8.658;2023-05-21T14:31:34;2.27;;;2.17;;
8636;SDS011;4356;49.068;8.658;2023-05-21T14:34:00;2.30;;;2.10;;
8636;SDS011;4356;49.068;8.658;2023-05-21T14:36:27;2.73;;;2.63;;
8636;SDS011;4356;49.068;8.658;2023-05-21T14:38:53;2.53;;;2.43;;
8636;SDS011;4356;49.068;8.658;2023-05-21T14:41:18;3.27;;;3.00;;
8636;SDS011;4356;49.068;8.658;2023-05-21T14:43:45;2.43;;;2.33;;
8636;SDS011;4356;49.068;8.658;2023-05-21T14:46:11;2.40;;;2.30;;
8636;SDS011;4356;49.068;8.658;2023-05-21T14:48:37;2.70;;;2.60;;
8636;SDS011;4356;49.068;8.658;2023-05-21T14:51:02;2.53;;;2.33;;
8636;SDS011;4356;49.068;8.658;2023-05-21T14:53:28;2.73;;;2.63;;
8636;SDS011;4356;49.068;8.658;2023-05-21T14:55:53;1.97;;;1.87;;
8636;SDS011;4356;49.068;8.658;2023-05-21T14:58:19;3.00;;;2.80;;
8636;SDS011;4356;49.068;8.658;2023-05-21T15:00:44;2.83;;;2.63;;
8636;SDS011;4356;49.068;8.658;2023-05-21T15:03:10;2.83;;;2.73;;
8636;SDS011;4356;49.068;8.658;2023-05-21T15:05:36;3.00;;;2.80;;
8636;SDS011;4356;49.068;8.658;2023-05-21T15:08:02;3.03;;;2.83;;
8636;SDS011;4356;49.068;8.658;2023-05-21T15:10:28;2.73;;;2.63;;
8636;SDS011;4356;49.068;8.658;2023-05-21T15:12:54;2.67;;;2.57;;
8636;SDS011;4356;49.068;8.658;2023-05-21T15:15:19;2.70;;;2.60;;
8636;SDS011;4356;49.068;8.658;2023-05-21T15:17:46;2.67;;;2.53;;
8636;SDS011;4356;49.068;8.658;2023-05-21T15:20:12;2.60;;;2.50;;
8636;SDS011;4356;49.068;8.658;2023-05-21T15:22:38;2.60;;;2.50;;
8636;SDS011;4356;49.068;8.658;2023-05-21T15:25:04;3.33;;;3.13;;
8636;SDS011;4356;49.068;8.658;2023-05-21T15:27:30;2.67;;;2.57;;
8636;SDS011;4356;49.068;8.658;2023-05-21T15:29:56;2.63;;;2.53;;
8636;SDS011;4356;49.068;8.658;2023-05-21T15:32:22;2.70;;;2.60;;
8636;SDS011;4356;49.068;8.658;2023-05-21T15:34:48;2.63;;;2.53;;
8636;SDS011;4356;49.068;8.658;2023-05-21T15:37:14;3.20;;;3.00;;
8636;SDS011;4356;49.068;8.658;2023-05-21T15:39:41;2.50;;;2.37;;
8636;SDS011;4356;49.068;8.658;2023-05-21T15:42:07;3.00;;;2.80;;
8636;SDS011;4356;49.068;8.658;2023-05-21T15:44:33;2.80;;;2.70;;